Time;durP1;ratioP1;P1;durP2;ratioP2;P2;SDS_P1;SDS_P2;PMS_P1;PMS_P2;Temp;Humidity;BMP_temperature;BMP_pressure;BME280_temperature;BME280_humidity;BME280_pressure;Samples;Min_cycle;Max_cycle;Signal;HPM_P1;HPM_P2
2022/08/22 00:03:57;;;;;;;15.23;9.25;;;;;;;;;;10267482;28;20107;-66
2022/08/22 00:09:01;;;;;;;9.70;8.70;;;;;;;;;;10266874;28;20080;-66
2022/08/22 00:14:01;;;;;;;11.43;9.93;;;;;;;;;;10265932;28;20487;-67
2022/08/22 00:19:05;;;;;;;12.82;10.65;;;;;;;;;;10266583;28;20483;-67
2022/08/22 00:24:08;;;;;;;10.93;9.82;;;;;;;;;;10267138;28;20069;-67
2022/08/22 00:29:08;;;;;;;9.82;8.38;;;;;;;;;;10265007;28;20069;-66
2022/08/22 00:34:10;;;;;;;8.55;7.75;;;;;;;;;;10266294;28;20048;-68
2022/08/22 00:39:12;;;;;;;12.05;7.95;;;;;;;;;;10264679;28;20072;-66
2022/08/22 00:44:28;;;;;;;11.18;8.70;;;;;;;;;;10259916;28;20076;-67
2022/08/22 00:49:37;;;;;;;11.38;8.95;;;;;;;;;;10342487;28;20536;-67
2022/08/22 00:54:48;;;;;;;11.25;8.75;;;;;;;;;;10346362;28;20072;-67
2022/08/22 01:00:10;;;;;;;10.40;8.70;;;;;;;;;;10345533;28;20078;-66
2022/08/22 01:05:24;;;;;;;9.73;7.88;;;;;;;;;;10342341;28;20075;-66
2022/08/22 01:10:27;;;;;;;9.30;8.35;;;;;;;;;;10346960;28;20067;-64
2022/08/22 01:15:27;;;;;;;8.32;7.53;;;;;;;;;;10346494;28;20044;-65
2022/08/22 01:20:47;;;;;;;12.50;8.00;;;;;;;;;;10345572;28;20606;-67
2022/08/22 01:26:00;;;;;;;8.73;6.75;;;;;;;;;;10344254;28;20064;-66
2022/08/22 01:31:25;;;;;;;9.70;8.02;;;;;;;;;;10354567;28;20047;-66
2022/08/22 01:36:36;;;;;;;11.23;7.30;;;;;;;;;;10359272;28;20489;-68
2022/08/22 01:41:52;;;;;;;10.88;8.13;;;;;;;;;;10358985;28;20083;-68
2022/08/22 01:46:54;;;;;;;11.35;7.57;;;;;;;;;;10347211;28;20080;-68
2022/08/22 01:51:57;;;;;;;8.85;7.55;;;;;;;;;;10343876;28;20172;-68
2022/08/22 01:57:00;;;;;;;9.73;7.68;;;;;;;;;;10344061;28;20438;-68
2022/08/22 02:02:01;;;;;;;9.65;7.63;;;;;;;;;;10343197;28;20064;-69
2022/08/22 02:07:05;;;;;;;8.82;7.35;;;;;;;;;;10344151;28;20040;-69
2022/08/22 02:12:16;;;;;;;12.75;8.60;;;;;;;;;;10344009;28;20060;-69
2022/08/22 02:17:22;;;;;;;10.00;8.35;;;;;;;;;;10344661;28;20477;-67
2022/08/22 02:22:28;;;;;;;8.82;7.28;;;;;;;;;;10344143;28;20071;-68
2022/08/22 02:27:33;;;;;;;7.93;7.22;;;;;;;;;;10343884;28;20098;-68
2022/08/22 02:32:35;;;;;;;11.20;8.15;;;;;;;;;;10337651;28;20190;-68
2022/08/22 02:37:37;;;;;;;11.40;8.25;;;;;;;;;;10342862;28;20481;-68
2022/08/22 02:42:37;;;;;;;13.50;7.63;;;;;;;;;;10343006;28;20068;-68
2022/08/22 02:47:40;;;;;;;11.60;8.35;;;;;;;;;;10344626;28;20076;-68
2022/08/22 02:52:44;;;;;;;14.52;8.48;;;;;;;;;;10341487;28;20078;-68
2022/08/22 02:57:44;;;;;;;11.82;8.88;;;;;;;;;;10342198;28;20072;-68
2022/08/22 03:02:58;;;;;;;10.15;9.15;;;;;;;;;;10342447;28;20460;-68
2022/08/22 03:08:02;;;;;;;9.00;8.15;;;;;;;;;;10342139;28;20076;-68
2022/08/22 03:13:06;;;;;;;9.55;8.68;;;;;;;;;;10341097;28;20083;-69
2022/08/22 03:18:06;;;;;;;19.67;10.27;;;;;;;;;;10342735;28;20075;-68
2022/08/22 03:23:09;;;;;;;15.05;10.30;;;;;;;;;;10351348;28;20063;-68
2022/08/22 03:28:09;;;;;;;13.38;9.90;;;;;;;;;;10349550;28;20067;-68
2022/08/22 03:33:25;;;;;;;11.13;9.90;;;;;;;;;;10350839;28;20063;-68
2022/08/22 03:38:28;;;;;;;10.82;9.32;;;;;;;;;;10349774;28;20075;-68
2022/08/22 03:43:37;;;;;;;10.15;9.02;;;;;;;;;;10348117;28;20079;-68
2022/08/22 03:48:47;;;;;;;16.70;10.05;;;;;;;;;;10348592;28;20075;-68
2022/08/22 03:54:13;;;;;;;10.27;9.25;;;;;;;;;;10350043;28;20520;-67
2022/08/22 03:59:29;;;;;;;11.82;8.70;;;;;;;;;;10348155;28;20500;-67
2022/08/22 04:04:49;;;;;;;14.35;9.38;;;;;;;;;;10332426;28;20095;-67
2022/08/22 04:09:57;;;;;;;11.52;10.43;;;;;;;;;;10314375;28;20080;-68
2022/08/22 04:15:15;;;;;;;17.10;10.55;;;;;;;;;;10347425;28;20158;-68
2022/08/22 04:20:23;;;;;;;9.82;8.85;;;;;;;;;;10349601;28;20082;-68
2022/08/22 04:25:26;;;;;;;12.32;9.20;;;;;;;;;;10347961;28;20040;-68
2022/08/22 04:30:28;;;;;;;10.20;8.60;;;;;;;;;;10350048;28;20530;-66
2022/08/22 04:35:29;;;;;;;12.00;9.20;;;;;;;;;;10327201;28;20044;-68
2022/08/22 04:40:33;;;;;;;11.95;9.43;;;;;;;;;;10348331;28;20076;-69
2022/08/22 04:45:35;;;;;;;12.23;10.30;;;;;;;;;;10338425;28;20067;-68
2022/08/22 04:50:38;;;;;;;14.52;10.93;;;;;;;;;;10339736;28;20076;-69
2022/08/22 04:55:46;;;;;;;11.02;9.95;;;;;;;;;;10331420;28;20078;-68
2022/08/22 05:00:51;;;;;;;11.57;8.95;;;;;;;;;;10312774;28;20068;-68
2022/08/22 05:05:50;;;;;;;10.95;9.43;;;;;;;;;;10325710;28;20060;-68
2022/08/22 05:10:53;;;;;;;11.43;9.57;;;;;;;;;;10337908;28;20521;-68
2022/08/22 05:15:55;;;;;;;10.32;9.25;;;;;;;;;;10331173;28;20080;-68
2022/08/22 05:20:53;;;;;;;12.23;10.18;;;;;;;;;;10332587;28;20075;-68
2022/08/22 05:25:56;;;;;;;11.15;8.88;;;;;;;;;;10344247;28;20075;-68
2022/08/22 05:30:55;;;;;;;13.43;10.95;;;;;;;;;;10327642;28;20075;-68
2022/08/22 05:35:55;;;;;;;13.00;9.77;;;;;;;;;;10328106;28;20485;-68
2022/08/22 05:40:59;;;;;;;10.63;9.52;;;;;;;;;;10350676;28;20060;-66
2022/08/22 05:45:58;;;;;;;8.80;7.72;;;;;;;;;;10341601;28;20508;-68
2022/08/22 05:51:01;;;;;;;10.23;9.07;;;;;;;;;;10342683;28;20064;-68
2022/08/22 05:56:02;;;;;;;57.28;52.58;;;;;;;;;;10346721;28;20723;-68
2022/08/22 06:01:05;;;;;;;135.60;124.07;;;;;;;;;;10335666;28;20095;-69
2022/08/22 06:06:08;;;;;;;68.03;62.40;;;;;;;;;;10335668;28;20075;-68
2022/08/22 06:11:09;;;;;;;37.38;33.92;;;;;;;;;;10337260;28;20057;-68
2022/08/22 06:16:10;;;;;;;18.70;16.67;;;;;;;;;;10348595;28;20056;-69
2022/08/22 06:21:10;;;;;;;12.68;11.38;;;;;;;;;;10344317;28;20064;-68
2022/08/22 06:26:11;;;;;;;14.70;10.13;;;;;;;;;;10343617;28;20064;-69
2022/08/22 06:31:19;;;;;;;11.25;9.88;;;;;;;;;;10344405;28;20520;-70
2022/08/22 06:36:30;;;;;;;11.10;9.95;;;;;;;;;;10343517;28;20340;-68
2022/08/22 06:41:32;;;;;;;14.77;7.95;;;;;;;;;;10343416;28;20068;-68
2022/08/22 06:46:31;;;;;;;12.55;10.05;;;;;;;;;;10343138;28;20088;-68
2022/08/22 06:51:30;;;;;;;15.98;10.07;;;;;;;;;;10341238;28;20528;-68
2022/08/22 06:56:32;;;;;;;16.15;9.15;;;;;;;;;;10337505;28;20486;-69
2022/08/22 07:01:33;;;;;;;15.02;9.43;;;;;;;;;;10343462;28;20084;-68
2022/08/22 07:06:34;;;;;;;8.70;7.90;;;;;;;;;;10340220;28;20048;-68
2022/08/22 07:11:36;;;;;;;10.13;9.07;;;;;;;;;;10342691;28;20037;-68
2022/08/22 07:16:39;;;;;;;11.27;7.85;;;;;;;;;;10342411;28;20099;-69
2022/08/22 07:21:42;;;;;;;8.83;7.90;;;;;;;;;;10337778;28;20079;-68
2022/08/22 07:26:46;;;;;;;10.00;7.82;;;;;;;;;;10350191;28;20058;-68
2022/08/22 07:31:51;;;;;;;9.50;6.90;;;;;;;;;;10357304;28;20047;-69
2022/08/22 07:36:52;;;;;;;11.10;6.95;;;;;;;;;;10344582;28;20064;-69
2022/08/22 07:41:58;;;;;;;8.43;7.63;;;;;;;;;;10340488;28;20087;-67
2022/08/22 07:46:59;;;;;;;8.57;7.68;;;;;;;;;;10341193;28;20555;-68
2022/08/22 07:51:59;;;;;;;9.18;8.27;;;;;;;;;;10341309;28;20079;-67
2022/08/22 07:57:01;;;;;;;8.13;7.43;;;;;;;;;;10340715;28;20064;-68
2022/08/22 08:02:00;;;;;;;11.18;9.02;;;;;;;;;;10340182;28;20072;-68
2022/08/22 08:07:00;;;;;;;12.45;8.52;;;;;;;;;;10344803;28;20067;-69
2022/08/22 08:12:02;;;;;;;9.00;7.28;;;;;;;;;;10347916;28;20474;-69
2022/08/22 08:17:02;;;;;;;8.63;7.15;;;;;;;;;;10347161;28;20543;-68
2022/08/22 08:22:00;;;;;;;7.38;6.60;;;;;;;;;;10347508;28;20075;-69
2022/08/22 08:32:17;;;;;;;8.35;6.88;;;;;;;;;;10348386;28;20070;-69
2022/08/22 08:37:20;;;;;;;9.80;7.55;;;;;;;;;;10348880;28;20080;-69
2022/08/22 08:48:21;;;;;;;9.18;6.90;;;;;;;;;;10258563;28;20086;-68
2022/08/22 08:53:34;;;;;;;9.80;7.78;;;;;;;;;;10344612;28;20378;-68
2022/08/22 08:58:42;;;;;;;11.05;6.47;;;;;;;;;;10328156;28;20052;-68
2022/08/22 09:04:03;;;;;;;10.77;7.22;;;;;;;;;;10346140;28;20071;-68
2022/08/22 09:09:12;;;;;;;6.32;5.72;;;;;;;;;;10345862;28;20083;-68
2022/08/22 09:14:18;;;;;;;8.65;6.10;;;;;;;;;;10347393;28;20036;-68
2022/08/22 09:19:37;;;;;;;8.73;6.75;;;;;;;;;;10340215;28;20083;-68
2022/08/22 09:24:45;;;;;;;7.38;5.80;;;;;;;;;;10358345;28;20076;-68
2022/08/22 09:29:47;;;;;;;5.53;4.95;;;;;;;;;;10359927;28;20044;-69
2022/08/22 09:35:11;;;;;;;9.68;7.45;;;;;;;;;;10347547;28;20532;-67
2022/08/22 09:40:14;;;;;;;6.85;6.28;;;;;;;;;;10344281;28;20071;-68
2022/08/22 09:45:36;;;;;;;7.63;6.45;;;;;;;;;;10328067;28;20429;-68
2022/08/22 09:50:44;;;;;;;8.70;7.28;;;;;;;;;;10345905;28;20056;-68
2022/08/22 09:55:46;;;;;;;7.80;6.85;;;;;;;;;;10344160;28;20075;-69
2022/08/22 10:00:53;;;;;;;9.77;7.38;;;;;;;;;;10348203;28;20072;-69
2022/08/22 10:05:56;;;;;;;8.35;6.40;;;;;;;;;;10349178;28;20090;-69
2022/08/22 10:11:07;;;;;;;7.73;6.87;;;;;;;;;;10357032;28;20068;-68
2022/08/22 10:16:15;;;;;;;10.50;6.57;;;;;;;;;;10351255;28;20040;-68
2022/08/22 10:21:22;;;;;;;8.75;6.68;;;;;;;;;;10349736;28;20071;-68
2022/08/22 10:26:29;;;;;;;9.43;7.45;;;;;;;;;;10343679;28;20109;-68
2022/08/22 10:31:29;;;;;;;8.13;7.18;;;;;;;;;;10342717;28;20678;-69
2022/08/22 10:36:32;;;;;;;9.95;6.72;;;;;;;;;;10344431;28;20051;-68
2022/08/22 10:41:34;;;;;;;14.07;7.50;;;;;;;;;;10343342;28;20083;-68
2022/08/22 10:46:36;;;;;;;12.98;8.90;;;;;;;;;;10342906;28;20068;-68
2022/08/22 10:51:42;;;;;;;10.10;7.40;;;;;;;;;;10339039;28;20068;-67
2022/08/22 10:56:42;;;;;;;11.13;7.03;;;;;;;;;;10339625;28;20075;-68
2022/08/22 11:01:46;;;;;;;7.80;6.65;;;;;;;;;;10339900;28;20110;-68
2022/08/22 11:06:48;;;;;;;11.38;7.40;;;;;;;;;;10340625;28;20078;-68
2022/08/22 11:11:48;;;;;;;7.75;7.03;;;;;;;;;;10340932;28;20075;-68
2022/08/22 11:16:54;;;;;;;8.45;7.00;;;;;;;;;;10341203;28;20064;-68
2022/08/22 11:22:02;;;;;;;8.23;7.32;;;;;;;;;;10343180;28;20084;-68
2022/08/22 11:27:03;;;;;;;7.20;6.53;;;;;;;;;;10342371;28;20041;-69
2022/08/22 11:32:09;;;;;;;12.43;7.47;;;;;;;;;;10340798;28;20072;-69
2022/08/22 11:37:17;;;;;;;9.93;6.50;;;;;;;;;;10341756;28;20068;-69
2022/08/22 11:42:24;;;;;;;9.35;6.45;;;;;;;;;;10344795;28;20103;-69
2022/08/22 11:47:30;;;;;;;8.05;6.70;;;;;;;;;;10327636;28;20472;-69
2022/08/22 11:52:46;;;;;;;9.70;6.13;;;;;;;;;;10342589;28;20059;-69
2022/08/22 11:57:51;;;;;;;10.75;5.93;;;;;;;;;;10336371;28;20484;-68
2022/08/22 12:03:05;;;;;;;7.88;6.72;;;;;;;;;;10349193;28;20082;-69
2022/08/22 12:08:08;;;;;;;8.23;6.05;;;;;;;;;;10331907;28;20068;-69
2022/08/22 12:13:16;;;;;;;7.57;5.78;;;;;;;;;;10348126;28;20078;-69
2022/08/22 12:18:28;;;;;;;6.70;5.22;;;;;;;;;;10347931;28;20075;-69
2022/08/22 12:23:43;;;;;;;6.13;5.47;;;;;;;;;;10348097;28;20169;-69
2022/08/22 12:28:56;;;;;;;5.85;5.30;;;;;;;;;;10347621;28;20071;-69
2022/08/22 12:34:02;;;;;;;5.90;5.30;;;;;;;;;;10335085;28;20084;-69
2022/08/22 12:39:23;;;;;;;7.10;5.00;;;;;;;;;;10347801;28;20060;-69
2022/08/22 12:44:29;;;;;;;5.43;4.88;;;;;;;;;;10343037;28;20469;-69
2022/08/22 12:49:37;;;;;;;5.95;5.30;;;;;;;;;;10347672;28;20044;-69
2022/08/22 12:54:48;;;;;;;8.32;5.57;;;;;;;;;;10347407;28;20067;-69
2022/08/22 12:59:50;;;;;;;8.02;5.07;;;;;;;;;;10347244;28;20094;-68
2022/08/22 13:04:51;;;;;;;7.75;5.22;;;;;;;;;;10347501;28;20068;-68
2022/08/22 13:09:51;;;;;;;5.78;5.20;;;;;;;;;;10345624;28;20063;-68
2022/08/22 13:14:53;;;;;;;8.73;5.30;;;;;;;;;;10347506;28;20040;-68
2022/08/22 13:19:56;;;;;;;7.35;4.82;;;;;;;;;;10344484;28;20113;-68
2022/08/22 13:24:58;;;;;;;8.45;6.03;;;;;;;;;;10346603;28;20071;-68
2022/08/22 13:29:59;;;;;;;6.43;5.82;;;;;;;;;;10345414;28;20071;-70
2022/08/22 13:34:58;;;;;;;10.35;5.53;;;;;;;;;;10345338;28;20086;-68
2022/08/22 13:40:00;;;;;;;6.45;4.97;;;;;;;;;;10345235;28;20488;-69
2022/08/22 13:45:02;;;;;;;10.50;5.28;;;;;;;;;;10345418;28;20070;-69
2022/08/22 13:50:07;;;;;;;5.68;4.97;;;;;;;;;;10345571;28;20051;-69
2022/08/22 13:55:08;;;;;;;6.78;5.20;;;;;;;;;;10345030;28;20068;-68
2022/08/22 14:00:32;;;;;;;8.38;4.35;;;;;;;;;;10345709;28;20047;-69
2022/08/22 14:05:33;;;;;;;6.55;4.78;;;;;;;;;;10344942;28;20090;-68
2022/08/22 14:10:33;;;;;;;8.70;6.93;;;;;;;;;;10343540;28;20044;-68
2022/08/22 14:15:34;;;;;;;7.03;5.78;;;;;;;;;;10344029;28;20071;-68
2022/08/22 14:20:43;;;;;;;7.35;6.65;;;;;;;;;;10345534;28;20064;-68
2022/08/22 14:25:44;;;;;;;6.57;5.95;;;;;;;;;;10344141;28;20072;-68
2022/08/22 14:30:53;;;;;;;7.82;5.15;;;;;;;;;;10344298;28;20048;-68
2022/08/22 14:35:59;;;;;;;7.45;5.40;;;;;;;;;;10344237;28;20067;-68
2022/08/22 14:41:01;;;;;;;7.25;5.65;;;;;;;;;;10332212;28;20041;-68
2022/08/22 14:46:04;;;;;;;5.80;5.20;;;;;;;;;;10341453;28;20072;-68
2022/08/22 14:51:04;;;;;;;8.80;5.32;;;;;;;;;;10339868;28;20056;-68
2022/08/22 14:56:07;;;;;;;7.40;6.03;;;;;;;;;;10340131;28;20429;-68
2022/08/22 15:01:11;;;;;;;10.87;7.87;;;;;;;;;;10343612;28;20520;-69
2022/08/22 15:06:15;;;;;;;8.68;7.15;;;;;;;;;;10342797;28;20381;-68
2022/08/22 15:11:22;;;;;;;6.47;5.68;;;;;;;;;;10342504;28;20448;-69
2022/08/22 15:16:30;;;;;;;9.40;5.87;;;;;;;;;;10346414;28;20064;-68
2022/08/22 15:21:29;;;;;;;5.55;4.75;;;;;;;;;;10351475;28;20112;-68
2022/08/22 15:26:29;;;;;;;9.13;5.53;;;;;;;;;;10350585;28;20068;-69
2022/08/22 15:31:30;;;;;;;6.95;5.53;;;;;;;;;;10350490;28;20087;-69
2022/08/22 15:36:28;;;;;;;8.20;6.03;;;;;;;;;;10346504;28;20076;-69
2022/08/22 15:41:36;;;;;;;7.60;5.35;;;;;;;;;;10350436;28;20067;-69
2022/08/22 15:46:40;;;;;;;7.55;6.82;;;;;;;;;;10350909;28;20083;-69
2022/08/22 15:51:40;;;;;;;16.73;12.40;;;;;;;;;;10346309;28;20078;-69
2022/08/22 15:56:41;;;;;;;11.68;7.03;;;;;;;;;;10344215;28;20417;-69
2022/08/22 16:01:49;;;;;;;7.88;7.15;;;;;;;;;;10345861;28;20535;-69
2022/08/22 16:06:49;;;;;;;11.05;6.50;;;;;;;;;;10347458;28;20466;-69
2022/08/22 16:11:52;;;;;;;10.20;6.07;;;;;;;;;;10349107;28;20454;-69
2022/08/22 16:16:54;;;;;;;10.30;5.83;;;;;;;;;;10348536;28;20470;-69
2022/08/22 16:22:09;;;;;;;8.43;6.15;;;;;;;;;;10348770;28;20068;-69
2022/08/22 16:27:17;;;;;;;6.70;6.00;;;;;;;;;;10347687;28;20439;-69
2022/08/22 16:32:26;;;;;;;11.15;7.13;;;;;;;;;;10349292;28;20072;-69
2022/08/22 16:37:41;;;;;;;6.93;6.32;;;;;;;;;;10338468;28;20067;-69
2022/08/22 16:42:40;;;;;;;7.47;6.70;;;;;;;;;;10345195;28;20075;-68
2022/08/22 16:47:42;;;;;;;10.02;7.28;;;;;;;;;;10334893;28;20084;-68
2022/08/22 16:52:55;;;;;;;9.05;8.13;;;;;;;;;;10331928;28;20101;-68
2022/08/22 16:57:59;;;;;;;9.23;7.25;;;;;;;;;;10314081;28;20087;-66
2022/08/22 17:03:11;;;;;;;9.30;7.68;;;;;;;;;;10334180;28;20490;-66
2022/08/22 17:08:27;;;;;;;9.68;8.20;;;;;;;;;;10341087;28;20078;-66
2022/08/22 17:13:33;;;;;;;8.95;7.43;;;;;;;;;;10345531;28;20513;-67
2022/08/22 17:18:44;;;;;;;11.55;6.50;;;;;;;;;;10324731;28;20084;-65
2022/08/22 17:23:46;;;;;;;9.55;6.72;;;;;;;;;;10337411;28;20080;-66
2022/08/22 17:28:47;;;;;;;8.35;7.50;;;;;;;;;;10329995;28;20083;-66
2022/08/22 17:33:58;;;;;;;9.98;6.82;;;;;;;;;;10334888;28;20063;-65
2022/08/22 17:39:01;;;;;;;7.22;6.63;;;;;;;;;;10336550;28;20075;-65
2022/08/22 17:44:07;;;;;;;9.20;7.28;;;;;;;;;;10343868;28;20075;-66
2022/08/22 17:49:14;;;;;;;9.95;6.97;;;;;;;;;;10336837;28;20094;-65
2022/08/22 17:54:15;;;;;;;11.70;6.65;;;;;;;;;;10328891;28;20075;-67
2022/08/22 17:59:18;;;;;;;9.57;4.75;;;;;;;;;;10322119;28;20465;-66
2022/08/22 18:04:24;;;;;;;9.73;5.00;;;;;;;;;;10324442;28;20513;-66
2022/08/22 18:09:28;;;;;;;15.00;5.25;;;;;;;;;;10340287;28;20504;-68
2022/08/22 18:14:29;;;;;;;12.93;5.10;;;;;;;;;;10344956;28;20055;-66
2022/08/22 18:19:38;;;;;;;9.00;4.43;;;;;;;;;;10335965;28;20151;-66
2022/08/22 18:24:40;;;;;;;11.23;4.30;;;;;;;;;;10327432;28;20088;-66
2022/08/22 18:29:41;;;;;;;12.32;4.97;;;;;;;;;;10328365;28;20059;-66
2022/08/22 18:34:41;;;;;;;;;;;;;;;;;;10329503;28;20485;-66
2022/08/22 18:39:46;;;;;;;13.52;4.88;;;;;;;;;;10326636;28;19959;-66
2022/08/22 18:44:45;;;;;;;10.02;4.10;;;;;;;;;;10328390;28;20460;-66
2022/08/22 18:49:52;;;;;;;12.45;4.03;;;;;;;;;;10335555;28;20087;-66
2022/08/22 18:55:05;;;;;;;8.82;4.38;;;;;;;;;;10325859;28;20489;-65
2022/08/22 19:00:10;;;;;;;10.00;4.65;;;;;;;;;;10281609;28;20126;-65
2022/08/22 19:05:20;;;;;;;15.05;4.47;;;;;;;;;;10321717;28;20079;-65
2022/08/22 19:10:26;;;;;;;14.95;5.13;;;;;;;;;;10323320;28;20071;-67
2022/08/22 19:15:31;;;;;;;11.35;4.65;;;;;;;;;;10324826;28;20075;-66
2022/08/22 19:26:01;;;;;;;11.18;4.10;;;;;;;;;;10322570;28;20070;-66
2022/08/22 19:31:20;;;;;;;10.05;3.88;;;;;;;;;;10324636;28;20079;-67
2022/08/22 19:36:32;;;;;;;13.48;4.40;;;;;;;;;;10321022;28;20071;-67
2022/08/22 19:41:38;;;;;;;10.52;3.70;;;;;;;;;;10323983;28;20086;-66
2022/08/22 19:46:38;;;;;;;6.68;4.03;;;;;;;;;;10323641;28;20087;-66
2022/08/22 19:51:38;;;;;;;5.95;3.55;;;;;;;;;;10322071;28;20457;-66
2022/08/22 19:56:44;;;;;;;10.77;4.38;;;;;;;;;;10330598;28;20619;-68
2022/08/22 20:01:56;;;;;;;8.32;3.75;;;;;;;;;;10336552;28;20830;-67
2022/08/22 20:07:00;;;;;;;7.82;3.70;;;;;;;;;;10331836;28;20067;-68
2022/08/22 20:12:02;;;;;;;9.48;3.42;;;;;;;;;;10332894;28;20067;-67
2022/08/22 20:17:03;;;;;;;6.65;4.25;;;;;;;;;;10327771;28;20056;-67
2022/08/22 20:22:05;;;;;;;11.07;4.00;;;;;;;;;;10329394;28;20640;-67
2022/08/22 20:27:05;;;;;;;10.40;4.35;;;;;;;;;;10325014;28;20083;-67
2022/08/22 20:32:14;;;;;;;7.40;4.65;;;;;;;;;;10325258;28;20063;-68
2022/08/22 20:37:15;;;;;;;9.38;3.90;;;;;;;;;;10328293;28;20068;-68
2022/08/22 20:42:37;;;;;;;9.90;3.70;;;;;;;;;;10333238;28;20561;-68
2022/08/22 20:47:45;;;;;;;11.88;4.13;;;;;;;;;;10330033;28;20091;-68
2022/08/22 20:52:48;;;;;;;16.42;4.55;;;;;;;;;;10327194;28;20494;-68
2022/08/22 20:57:55;;;;;;;10.02;4.35;;;;;;;;;;10339292;28;20079;-67
2022/08/22 21:02:56;;;;;;;9.23;3.90;;;;;;;;;;10328709;28;20075;-67
2022/08/22 21:08:03;;;;;;;8.07;4.07;;;;;;;;;;10345770;28;20192;-67
2022/08/22 21:13:03;;;;;;;5.30;4.07;;;;;;;;;;10344407;28;20060;-67
2022/08/22 21:18:01;;;;;;;11.70;4.55;;;;;;;;;;10327598;28;20086;-68
2022/08/22 21:23:02;;;;;;;14.38;4.18;;;;;;;;;;10345638;28;20071;-68
2022/08/22 21:28:01;;;;;;;7.68;3.90;;;;;;;;;;10345714;28;20139;-68
2022/08/22 21:32:59;;;;;;;5.35;3.97;;;;;;;;;;10345581;28;20492;-68
2022/08/22 21:37:58;;;;;;;9.55;5.25;;;;;;;;;;10344920;28;20504;-68
2022/08/22 21:43:00;;;;;;;9.18;4.30;;;;;;;;;;10345016;28;20071;-67
2022/08/22 21:47:59;;;;;;;7.40;4.57;;;;;;;;;;10343750;28;20080;-67
2022/08/22 21:53:08;;;;;;;10.23;4.40;;;;;;;;;;10345048;28;20458;-67
2022/08/22 21:58:26;;;;;;;9.10;4.55;;;;;;;;;;10341810;28;20524;-67
2022/08/22 22:03:35;;;;;;;7.82;5.22;;;;;;;;;;10340630;28;20075;-68
2022/08/22 22:08:33;;;;;;;11.45;4.85;;;;;;;;;;10344320;28;20078;-67
2022/08/22 22:13:33;;;;;;;14.13;5.28;;;;;;;;;;10343866;28;20072;-67
2022/08/22 22:18:33;;;;;;;8.60;4.40;;;;;;;;;;10344277;28;20067;-67
2022/08/22 22:23:31;;;;;;;9.80;5.13;;;;;;;;;;10343516;28;20052;-68
2022/08/22 22:28:34;;;;;;;10.07;5.38;;;;;;;;;;10343094;28;20063;-67
2022/08/22 22:33:35;;;;;;;15.20;5.75;;;;;;;;;;10343136;28;20531;-67
2022/08/22 22:38:34;;;;;;;13.57;5.68;;;;;;;;;;10343217;28;20071;-68
2022/08/22 22:43:33;;;;;;;9.00;4.68;;;;;;;;;;10356574;28;20432;-68
2022/08/22 22:48:32;;;;;;;7.80;3.95;;;;;;;;;;10328266;28;20087;-68
2022/08/22 22:53:30;;;;;;;6.38;4.30;;;;;;;;;;10342207;28;20070;-67
2022/08/22 22:58:37;;;;;;;7.00;4.50;;;;;;;;;;10342731;28;20086;-67
2022/08/22 23:03:36;;;;;;;8.25;4.28;;;;;;;;;;10342852;28;20082;-67
2022/08/22 23:08:34;;;;;;;7.90;4.18;;;;;;;;;;10341426;28;20072;-67
2022/08/22 23:13:34;;;;;;;10.10;4.78;;;;;;;;;;10342409;28;20068;-67
2022/08/22 23:18:38;;;;;;;9.27;4.25;;;;;;;;;;10341747;28;20067;-66
2022/08/22 23:23:36;;;;;;;8.05;4.82;;;;;;;;;;10341920;28;20068;-67
2022/08/22 23:28:34;;;;;;;7.50;4.40;;;;;;;;;;10341151;28;20071;-66
2022/08/22 23:33:34;;;;;;;10.77;4.32;;;;;;;;;;10341194;28;20044;-67
2022/08/22 23:38:33;;;;;;;9.35;4.60;;;;;;;;;;10347345;28;20052;-66
2022/08/22 23:43:32;;;;;;;10.05;4.80;;;;;;;;;;10349183;28;20072;-67
2022/08/22 23:48:36;;;;;;;10.18;4.68;;;;;;;;;;10348670;28;20703;-68
2022/08/22 23:53:38;;;;;;;10.43;4.50;;;;;;;;;;10349140;28;20071;-67
2022/08/22 23:58:36;;;;;;;7.70;4.57;;;;;;;;;;10360870;28;20056;-66
